• Join FlightAware (Why Join?)
  • Login
  • US Flag GB Flag 
00:39 EDT


 

Airport Tracker/Info


-or-


 

Live Flight TrackerFlight Track Log ✈ SWA975 ✈ 06-Apr-2013 ✈ KFLL - KBUF

Flight Track Log - Related Links

Times and Time Zones

All times are in EDT time to prevent confusion due to time zone crossing. See the SWA975 flight status page for this flight to view local times or setup timezone preferences in your user account.

Time Position Orientation Groundspeed Altitude Reporting Facility
EDT Latitude Longitude Course Direction KTS MPH feet Rate Location/Type
20:23 26.0750 -80.1297 88° East 116 133 1,200  Level Miami Center
20:24 26.0767 -80.0628 88° East 217 250 3,600 2,220 Climbing Miami Center
20:25 26.0989 -79.9961 70° East 236 272 6,200 2,760 Climbing Miami Center
20:26 26.1319 -79.9183 65° Northeast 288 331 9,300 3,000 Climbing Miami Center
20:26 26.1514 -79.8889 54° Northeast 286 329 10,400 2,160 Climbing Miami Center
20:27 26.1950 -79.7997 61° Northeast 300 345 12,400 2,460 Climbing Miami Center
20:28 26.2428 -79.7036 61° Northeast 333 383 15,300 2,940 Climbing Miami Center
20:29 26.2947 -79.6075 59° Northeast 354 407 18,300 2,580 Climbing Miami Center
20:30 26.3653 -79.5186 48° Northeast 370 426 20,600 2,340 Climbing Miami Center
20:31 26.4664 -79.4675 24° Northeast 383 441 23,000 2,100 Climbing Miami Center
20:32 26.5719 -79.4094 26° Northeast 401 461 24,900 1,920 Climbing Miami Center
20:33 26.6794 -79.3467 28° Northeast 422 486 26,900 1,860 Climbing Miami Center
20:34 26.7997 -79.2864 24° Northeast 439 505 28,700 1,800 Climbing Miami Center
20:35 26.9133 -79.2258 25° Northeast 449 517 30,600 1,800 Climbing Miami Center
20:36 27.0272 -79.1653 25° Northeast 444 511 32,400 1,680 Climbing Miami Center
20:37 27.1367 -79.1019 27° Northeast 444 511 34,000 1,500 Climbing Miami Center
20:38 27.2544 -79.0553 19° North 451 519 35,500 1,440 Climbing Miami Center
20:39 27.3694 -79.0386 North 444 511 36,900 720 Climbing Miami Center
20:40 27.4889 -79.0175 North 439 505 37,000  Climbing Miami Center
20:41 27.6186 -78.9989 North 434 499 37,000  Level Miami Center
20:42 27.7381 -78.9800 North 428 493 37,000  Level Miami Center
20:43 27.8553 -78.9633 North 423 487 37,000  Level Miami Center
20:44 27.9619 -78.9467 North 428 493 37,000  Level Miami Center
20:45 28.0811 -78.9275 North 428 493 37,000  Level Miami Center
20:46 28.2025 -78.9086 North 433 498 37,000  Level Miami Center
20:47 28.3156 -78.8917 North 428 493 37,000  Level Miami Center
20:48 28.4367 -78.8728 North 428 493 37,000  Level Miami Center
20:49 28.5519 -78.8536 North 423 487 37,000  Level Miami Center
20:50 28.6711 -78.8344 North 423 487 37,000  Level Miami Center
20:51 28.7881 -78.8150 North 428 493 37,000  Level Miami Center
20:52 28.9075 -78.7983 North 428 493 37,000  Level Miami Center
20:53 29.0267 -78.7814 North 428 493 37,000  Level Miami Center
20:56 29.2844 -78.7336 North 411 473 37,000  Level Jacksonville Center
20:57 29.3986 -78.7144 North 422 486 37,000  Level Jacksonville Center
20:58 29.5150 -78.7000 North 423 487 37,000  Level Jacksonville Center
20:59 29.6339 -78.6922 North 423 487 37,000  Level Jacksonville Center
21:00 29.7394 -78.6686 11° North 409 471 37,000  Level Jacksonville Center
21:01 29.8689 -78.6725 359° North 421 484 37,000  Level Jacksonville Center
21:02 29.9811 -78.6558 North 416 479 37,000  Level Jacksonville Center
21:03 30.1019 -78.6481 North 419 482 37,000  Level Jacksonville Center
21:04 30.2100 -78.6314 North 414 476 37,000  Level Jacksonville Center
21:05 30.3264 -78.6214 North 409 471 37,000  Level Jacksonville Center
21:06 30.4450 -78.6089 North 414 476 37,000  Level Jacksonville Center
21:07 30.5575 -78.5989 North 414 476 37,000  Level Jacksonville Center
21:08 30.6717 -78.5864 North 414 476 37,000  Level Jacksonville Center
21:09 30.7903 -78.5739 North 421 484 37,000  Level Jacksonville Center
21:10 30.9089 -78.5611 North 421 484 37,000  Level Jacksonville Center
21:11 31.0256 -78.5511 North 421 484 37,000  Level Jacksonville Center
21:12 31.1419 -78.5408 North 420 483 37,000  Level Jacksonville Center
21:13 31.2606 -78.5281 North 418 481 37,000  Level Jacksonville Center
21:14 31.3769 -78.5128 North 418 481 37,000  Level Jacksonville Center
21:15 31.4975 -78.4997 North 418 481 37,000  Level Jacksonville Center
21:16 31.6119 -78.4894 North 415 478 37,000  Level Jacksonville Center
21:17 31.7325 -78.4764 North 427 491 37,000  Level Jacksonville Center
21:18 31.8492 -78.4661 North 420 483 37,000  Level Jacksonville Center
21:19 31.9675 -78.4506 North 420 483 37,000  Level Jacksonville Center
21:20 32.0861 -78.4400 North 420 483 37,000  Level Jacksonville Center
21:21 32.2047 -78.4267 North 420 483 37,000  Level Jacksonville Center
21:22 32.3192 -78.4164 North 415 478 37,000 300 Level Jacksonville Center
21:23 32.4292 -78.4033 North 420 483 37,600 840 Climbing Jacksonville Center
21:24 32.5478 -78.3903 North 420 483 38,800 660 Climbing Jacksonville Center
21:25 32.6661 -78.3744 North 420 483 39,000 60 Climbing Jacksonville Center
21:26 32.7869 -78.3636 North 425 489 39,000  Level Jacksonville Center
21:27 32.9033 -78.3503 North 425 489 39,000  Level Jacksonville Center
21:28 33.0239 -78.3367 North 425 489 39,000  Level Jacksonville Center
21:29 33.1422 -78.3256 North 425 489 39,000  Level Jacksonville Center
21:30 33.2628 -78.3119 North 425 489 39,000  Level Jacksonville Center
21:31 33.3836 -78.3008 North 425 489 39,000  Level Jacksonville Center
21:32 33.5908 -78.2789 North 433 498 39,000  Level Washington Center
21:33 33.7100 -78.2678 North 433 498 39,000  Level Washington Center
21:34 33.8419 -78.2544 North 428 493 39,000  Level Washington Center
21:35 33.9631 -78.2433 North 428 493 39,000  Level Washington Center
21:36 34.0844 -78.2297 North 428 493 39,000  Level Washington Center
21:37 34.2056 -78.2186 North 428 493 39,000  Level Washington Center
21:38 34.3250 -78.2022 North 428 493 39,000  Level Washington Center
21:39 34.4461 -78.1883 North 428 493 39,000  Level Washington Center
21:40 34.5675 -78.1747 North 428 493 39,000  Level Washington Center
21:41 34.6889 -78.1608 North 428 493 39,000  Level Washington Center
21:42 34.8081 -78.1494 North 428 493 39,000  Level Washington Center
21:43 34.9231 -78.1303 North 422 486 39,000  Level Washington Center
21:44 35.0467 -78.1139 North 429 494 39,000  Level Washington Center
21:45 35.1658 -78.1022 North 429 494 39,000  Level Washington Center
21:46 35.2872 -78.0883 North 429 494 39,000  Level Washington Center
21:47 35.4081 -78.0869 North 429 494 39,000  Level Washington Center
21:48 35.5311 -78.0958 357° North 429 494 39,000  Level Washington Center
21:49 35.6497 -78.1047 357° North 429 494 39,000  Level Washington Center
21:50 35.7603 -78.1133 356° North 435 501 39,000  Level Washington Center
21:51 35.8789 -78.1222 357° North 435 501 39,000  Level Washington Center
21:52 35.9997 -78.1286 358° North 435 501 39,000  Level Washington Center
21:53 36.1206 -78.1378 356° North 430 495 39,000  Level Washington Center
21:54 36.2414 -78.1467 357° North 430 495 39,000  Level Washington Center
21:55 36.3644 -78.1558 357° North 430 495 39,000  Level Washington Center
21:56 36.4831 -78.1650 356° North 430 495 39,000  Level Washington Center
21:57 36.6039 -78.1714 358° North 430 495 39,000  Level Washington Center
21:58 36.7289 -78.1833 356° North 424 488 39,000  Level Washington Center
21:59 36.8497 -78.1900 357° North 419 482 39,000  Level Washington Center
22:00 36.9625 -78.1939 358° North 424 488 39,000  Level Washington Center
22:01 37.0833 -78.2006 357° North 429 494 39,000  Level Washington Center
22:02 37.2164 -78.2128 356° North 434 499 39,000  Level Washington Center
22:03 37.3353 -78.2197 357° North 434 499 39,000  Level Washington Center
22:04 37.4561 -78.2289 357° North 434 499 39,000  Level Washington Center
22:05 37.5769 -78.2358 357° North 434 499 39,000  Level Washington Center
22:06 37.6831 -78.2447 356° North 434 499 39,000  Level Washington Center
22:07 37.8039 -78.2542 356° North 434 499 39,000  Level Washington Center
22:08 37.9267 -78.2611 357° North 434 499 39,000  Level Washington Center
22:09 38.0494 -78.2708 356° North 417 480 39,000  Level Washington Center
22:10 38.1703 -78.2806 356° North 412 474 39,000  Level Washington Center
22:11 38.2911 -78.2900 356° North 422 486 39,000  Level Washington Center
22:12 38.4117 -78.2997 356° North 422 486 39,000  Level Washington Center
22:13 38.5200 -78.3064 357° North 422 486 39,000  Level Washington Center
22:14 38.6428 -78.3161 356° North 422 486 39,000  Level Washington Center
22:15 38.7636 -78.3258 356° North 427 491 39,000  Level Washington Center
22:17 39.0236 -78.3442 357° North 454 522 39,000  Level Cleveland Center
22:18 39.1469 -78.3564 356° North 448 516 39,000  Level Cleveland Center
22:19 39.2681 -78.3631 358° North 441 507 39,000  Level Cleveland Center
22:20 39.3744 -78.3731 356° North 436 502 39,000  Level Cleveland Center
22:21 39.4933 -78.3828 356° North 431 496 39,000  Level Cleveland Center
22:22 39.6167 -78.3894 358° North 431 496 39,000  Level Cleveland Center
22:23 39.7356 -78.3992 356° North 431 496 39,000  Level Cleveland Center
22:24 39.8669 -78.4058 358° North 426 490 39,000  Level Cleveland Center
22:25 39.9861 -78.4153 357° North 426 490 39,000  Level Cleveland Center
22:26 40.0947 -78.4228 357° North 432 497 39,000  Level Cleveland Center
22:27 40.2158 -78.4353 355° North 432 497 39,000  Level Cleveland Center
22:28 40.3347 -78.4422 357° North 432 497 39,000 -540 Level Cleveland Center
22:29 40.4558 -78.4519 357° North 427 491 38,000 -1,020 Descending Cleveland Center
22:30 40.5728 -78.4592 357° North 422 486 37,000 -960 Descending Cleveland Center
22:31 40.6939 -78.4689 357° North 422 486 36,100 -960 Descending Cleveland Center
22:32 40.8150 -78.4789 356° North 428 493 35,100 -1,020 Descending Cleveland Center
22:33 40.9403 -78.4886 357° North 433 498 34,100 -1,020 Descending Cleveland Center
22:34 41.0592 -78.4958 357° North 438 504 33,100 -1,020 Descending Cleveland Center
22:35 41.1783 -78.5058 356° North 432 497 32,100 -1,020 Descending Cleveland Center
22:36 41.2931 -78.5158 356° North 422 486 31,100 -1,080 Descending Cleveland Center
22:37 41.4183 -78.5258 357° North 422 486 30,000 -1,140 Descending Cleveland Center
22:38 41.5311 -78.5333 357° North 411 473 28,900 -1,140 Descending Cleveland Center
22:39 41.6333 -78.5439 356° North 396 456 27,800 -1,020 Descending Cleveland Center
22:40 41.7378 -78.5489 358° North 380 437 26,900 -960 Descending Cleveland Center
22:41 41.8464 -78.5594 356° North 374 430 25,900 -1,020 Descending Cleveland Center
22:42 41.9506 -78.5675 357° North 374 430 24,900 -1,560 Descending Cleveland Center
22:43 42.0528 -78.5725 358° North 374 430 22,800 -2,340 Descending Cleveland Center
22:44 42.1553 -78.5861 354° North 369 425 20,300 -2,220 Descending Cleveland Center
22:45 42.2617 -78.5911 358° North 369 425 18,400 -1,860 Descending Cleveland Center
22:46 42.3578 -78.5994 356° North 363 418 16,600 -1,800 Descending Cleveland Center
22:47 42.4517 -78.6078 356° North 351 404 14,900 -1,740 Descending Cleveland Center
22:48 42.5414 -78.6161 356° North 331 381 13,200 -1,680 Descending Cleveland Center
22:49 42.6292 -78.6219 357° North 324 373 11,600 -1,080 Descending Cleveland Center
22:50 42.7147 -78.6278 357° North 313 360 11,100 -840 Descending Cleveland Center
22:51 42.7814 -78.6286 359° North 275 316 10,000 -1,380 Descending Cleveland Center
22:52 42.8433 -78.6039 16° North 233 268 8,400 -1,500 Descending Cleveland Center
22:53 42.8992 -78.5794 18° North 218 251 7,000 -1,500 Descending Cleveland Center
22:54 42.9531 -78.5608 14° North 208 239 5,500 -1,560 Descending Cleveland Center
22:55 43.0011 -78.5564 North 194 223 3,900 -1,500 Descending Cleveland Center
22:56 43.0247 -78.6039 304° West 146 168 2,600 -1,080 Descending Cleveland Center
22:57 43.0167 -78.6333 249° West 125 144 2,000 -480 Descending Buffalo TRACON
22:58 42.9833 -78.6667 216° Southwest 127 146 1,800 -480 Descending Buffalo TRACON
22:59 42.9667 -78.7000 236° Southwest 128 147 1,100 -720 Descending Buffalo TRACON
23:01 42.9333 -78.7167 289° West  Level FlightAware Approximate
23:08 42.9404 -78.7306 289° West  Level Estimated